Time;durP1;ratioP1;P1;durP2;ratioP2;P2;SDS_P1;SDS_P2;PMS_P1;PMS_P2;Temp;Humidity;BMP_temperature;BMP_pressure;BME280_temperature;BME280_humidity;BME280_pressure;Samples;Min_cycle;Max_cycle;Signal;HPM_P1;HPM_P2
2021/05/16 00:00:21;;;;;;;4.77;1.40;;;;;;;11.58;69.42;97783.16;5088071;28;39699;-78
2021/05/16 00:02:48;;;;;;;2.47;1.07;;;;;;;11.62;69.66;97781.09;5099319;28;41465;-76
2021/05/16 00:05:19;;;;;;;4.70;1.67;;;;;;;11.61;69.58;97785.56;5108184;27;42816;-78
2021/05/16 00:07:47;;;;;;;4.10;1.30;;;;;;;11.40;69.68;97782.84;5108902;27;42850;-78
2021/05/16 00:10:16;;;;;;;3.00;1.40;;;;;;;11.39;69.59;97796.22;5088407;28;40866;-77
2021/05/16 00:12:43;;;;;;;2.70;1.20;;;;;;;11.28;70.09;97790.97;5086703;28;42432;-77
2021/05/16 00:15:13;;;;;;;1.90;1.17;;;;;;;11.19;70.37;97789.09;5087109;28;41556;-77
2021/05/16 00:17:41;;;;;;;1.30;0.90;;;;;;;10.86;70.62;97751.16;5096741;28;42301;-77
2021/05/16 00:20:11;;;;;;;2.30;1.23;;;;;;;11.08;70.67;97797.91;5108473;28;39948;-76
2021/05/16 00:22:40;;;;;;;2.03;0.93;;;;;;;11.01;70.50;97802.00;5108978;27;41179;-78
2021/05/16 00:25:10;;;;;;;1.60;1.20;;;;;;;10.91;70.65;97786.03;5092920;28;42077;-78
2021/05/16 00:27:38;;;;;;;1.87;1.00;;;;;;;11.06;71.09;97806.00;5070781;28;42114;-78
2021/05/16 00:30:07;;;;;;;5.00;1.70;;;;;;;11.12;71.17;97792.25;5086900;28;40133;-77
2021/05/16 00:32:35;;;;;;;2.73;1.30;;;;;;;11.13;71.38;97785.13;5095452;28;41390;-77
2021/05/16 00:35:03;;;;;;;2.57;1.20;;;;;;;11.25;71.19;97793.91;5108916;27;42476;-78
2021/05/16 00:37:30;;;;;;;4.50;1.20;;;;;;;11.28;71.41;97793.63;5091236;28;42424;-77
2021/05/16 00:39:58;;;;;;;1.43;1.10;;;;;;;11.09;71.11;97758.06;5099348;28;39820;-78
2021/05/16 00:42:25;;;;;;;3.10;1.50;;;;;;;11.17;70.97;97781.25;5087348;28;41934;-77
2021/05/16 00:45:05;;;;;;;1.37;0.93;;;;;;;11.25;71.10;97799.22;5088830;28;43330;-77
2021/05/16 00:47:32;;;;;;;3.53;1.50;;;;;;;11.26;70.60;97806.16;5104132;28;42102;-78
2021/05/16 00:50:00;;;;;;;3.87;1.70;;;;;;;11.21;70.67;97787.16;5102782;28;39991;-76
2021/05/16 00:52:28;;;;;;;4.17;2.03;;;;;;;11.32;71.33;97795.06;5072041;28;41631;-78
2021/05/16 00:54:56;;;;;;;4.53;2.00;;;;;;;11.31;71.66;97788.09;5095435;28;42010;-77
2021/05/16 00:57:25;;;;;;;2.47;1.60;;;;;;;11.24;71.01;97777.16;5093761;28;41021;-77
2021/05/16 00:59:52;;;;;;;3.27;1.93;;;;;;;11.27;71.29;97795.44;5111044;28;41010;-78
2021/05/16 01:02:20;;;;;;;4.77;2.07;;;;;;;11.20;71.16;97793.44;5112191;27;40916;-77
2021/05/16 01:04:47;;;;;;;4.27;1.70;;;;;;;11.13;71.49;97790.41;5079793;28;41688;-79
2021/05/16 01:07:14;;;;;;;5.60;1.97;;;;;;;11.09;71.87;97791.66;5090189;28;42174;-77
2021/05/16 01:09:41;;;;;;;4.07;2.43;;;;;;;10.93;72.20;97773.50;5108279;28;40193;-77
2021/05/16 01:12:09;;;;;;;2.37;1.87;;;;;;;10.98;71.94;97784.59;5110748;28;41758;-78
2021/05/16 01:14:42;;;;;;;2.90;1.77;;;;;;;10.95;72.12;97790.13;5110543;28;42874;-77
2021/05/16 01:17:09;;;;;;;3.97;1.83;;;;;;;10.88;71.93;97778.31;5110735;28;41419;-77
2021/05/16 01:19:38;;;;;;;5.47;2.40;;;;;;;10.82;72.02;97783.28;5100677;28;40366;-77
2021/05/16 01:22:08;;;;;;;3.30;2.20;;;;;;;10.70;72.07;97772.72;5072780;28;42052;-75
2021/05/16 01:24:37;;;;;;;2.90;2.10;;;;;;;10.75;72.20;97785.59;5090658;28;42200;-77
2021/05/16 01:27:10;;;;;;;4.00;2.20;;;;;;;10.72;72.91;97780.53;5089570;28;40777;-78
2021/05/16 01:29:38;;;;;;;3.77;2.30;;;;;;;10.64;73.16;97780.28;5110458;28;39832;-79
2021/05/16 01:32:10;;;;;;;2.77;1.80;;;;;;;10.55;72.86;97767.81;5110252;28;41797;-77
2021/05/16 01:34:39;;;;;;;2.77;2.00;;;;;;;10.56;73.22;97780.06;5137720;27;42803;-76
2021/05/16 01:37:09;;;;;;;5.70;2.17;;;;;;;10.49;73.37;97785.03;5090217;28;42175;-76
2021/05/16 01:39:37;;;;;;;3.67;1.87;;;;;;;10.48;73.28;97787.78;5090647;28;39933;-77
2021/05/16 01:42:06;;;;;;;3.03;2.00;;;;;;;10.44;73.44;97792.47;5086294;28;41211;-78
2021/05/16 01:44:34;;;;;;;5.97;1.87;;;;;;;10.41;73.01;97788.25;5127224;27;43016;-77
2021/05/16 01:47:02;;;;;;;3.23;2.10;;;;;;;10.36;72.96;97795.75;5092608;28;41214;-78
2021/05/16 01:49:29;;;;;;;3.40;1.73;;;;;;;10.26;73.44;97786.81;5108093;27;40812;-77
2021/05/16 01:51:57;;;;;;;2.70;1.80;;;;;;;10.27;73.76;97796.44;5073420;28;41632;-78
2021/05/16 01:54:25;;;;;;;5.33;2.17;;;;;;;10.25;73.76;97803.69;5089156;28;43410;-77
2021/05/16 01:56:52;;;;;;;4.10;2.10;;;;;;;10.11;73.99;97774.78;5081192;28;40999;-78
2021/05/16 01:59:19;;;;;;;3.60;1.70;;;;;;;10.25;74.03;97803.69;5109726;28;39914;-77
2021/05/16 02:01:47;;;;;;;5.53;2.60;;;;;;;10.25;74.46;97798.38;5127622;27;40966;-76
2021/05/16 02:04:15;;;;;;;5.87;2.83;;;;;;;10.24;73.96;97796.72;5092750;28;41899;-77
2021/05/16 02:06:42;;;;;;;5.13;2.70;;;;;;;10.30;74.14;97809.44;5090041;28;41134;-77
2021/05/16 02:09:09;;;;;;;4.90;3.03;;;;;;;10.20;74.99;97787.31;5123179;27;39761;-77
2021/05/16 02:11:38;;;;;;;6.27;3.27;;;;;;;10.33;74.88;97817.16;5072584;28;41605;-78
2021/05/16 02:14:11;;;;;;;5.07;2.90;;;;;;;10.26;74.76;97800.03;5088446;28;43435;-77
2021/05/16 02:16:39;;;;;;;4.77;2.97;;;;;;;10.38;74.55;97812.34;5089809;28;42003;-77
2021/05/16 02:19:11;;;;;;;4.77;3.17;;;;;;;10.39;74.30;97810.50;5089227;28;39014;-77
2021/05/16 02:21:41;;;;;;;4.77;3.13;;;;;;;10.39;74.30;97811.34;5072017;28;41572;-76
2021/05/16 02:24:08;;;;;;;6.30;3.00;;;;;;;10.37;74.65;97823.91;5089907;28;42518;-77
2021/05/16 02:27:01;;;;;;;4.63;3.03;;;;;;;10.33;74.35;97821.59;5088293;28;42112;-78
2021/05/16 02:29:34;;;;;;;4.10;2.40;;;;;;;10.41;74.47;97819.19;5091120;28;39951;-77
2021/05/16 02:32:01;;;;;;;2.70;2.50;;;;;;;10.42;73.83;97819.06;5089281;28;42333;-78
2021/05/16 02:34:29;;;;;;;5.50;2.67;;;;;;;10.38;74.17;97815.00;5074385;28;41907;-77
2021/05/16 02:36:57;;;;;;;4.60;2.70;;;;;;;10.35;74.54;97814.38;5109830;28;41294;-77
2021/05/16 02:39:24;;;;;;;3.93;2.93;;;;;;;10.31;74.22;97812.94;5109296;28;40812;-78
2021/05/16 02:41:51;;;;;;;4.60;2.60;;;;;;;10.29;74.49;97813.03;5110007;28;40925;-77
2021/05/16 02:44:20;;;;;;;4.33;2.63;;;;;;;10.27;74.04;97825.53;5080181;28;42792;-76
2021/05/16 02:46:48;;;;;;;3.63;2.47;;;;;;;10.28;74.41;97819.28;5072580;28;41616;-76
2021/05/16 02:49:15;;;;;;;4.37;2.10;;;;;;;10.28;74.29;97819.28;5121851;27;39921;-77
2021/05/16 02:51:43;;;;;;;3.27;2.27;;;;;;;10.21;74.28;97796.94;5106011;28;41576;-77
2021/05/16 02:54:10;;;;;;;3.80;2.37;;;;;;;10.27;74.28;97814.97;5088130;28;42979;-76
2021/05/16 02:56:38;;;;;;;4.30;2.30;;;;;;;10.25;74.69;97818.72;5088523;28;42724;-77
2021/05/16 02:59:06;;;;;;;4.30;2.40;;;;;;;10.24;74.60;97817.03;5105291;28;40541;-78
2021/05/16 03:01:35;;;;;;;5.00;2.40;;;;;;;10.26;74.81;97815.09;5089084;28;20234;-78
2021/05/16 03:04:03;;;;;;;3.83;2.27;;;;;;;10.29;74.45;97820.13;5090444;28;41711;-78
2021/05/16 03:06:31;;;;;;;5.53;2.80;;;;;;;10.30;74.70;97812.09;5108951;28;42151;-78
2021/05/16 03:08:58;;;;;;;4.30;2.10;;;;;;;10.42;74.15;97821.72;5109014;27;40696;-77
2021/05/16 03:11:30;;;;;;;3.60;2.50;;;;;;;10.50;73.81;97822.94;5121532;27;42430;-78
2021/05/16 03:13:58;;;;;;;5.67;2.43;;;;;;;10.56;73.79;97833.03;5089041;28;43206;-78
2021/05/16 03:16:30;;;;;;;5.47;2.30;;;;;;;10.62;73.80;97821.97;5071898;28;41004;-78
2021/05/16 03:18:58;;;;;;;3.83;2.63;;;;;;;10.62;73.85;97808.72;5105123;27;39985;-78
2021/05/16 03:21:29;;;;;;;3.27;2.60;;;;;;;10.59;73.87;97820.41;5088681;28;41375;-78
2021/05/16 03:23:58;;;;;;;4.10;2.70;;;;;;;10.58;74.19;97820.50;5087932;28;42772;-78
2021/05/16 03:26:25;;;;;;;5.53;2.50;;;;;;;10.54;73.71;97811.13;5106210;28;42365;-77
2021/05/16 03:28:52;;;;;;;3.77;2.10;;;;;;;10.66;73.61;97823.38;5125264;27;40797;-77
2021/05/16 03:31:20;;;;;;;5.97;2.77;;;;;;;10.68;73.68;97816.16;5108408;28;41640;-76
2021/05/16 03:33:47;;;;;;;3.97;2.30;;;;;;;10.70;73.68;97814.25;5119966;27;42600;-78
2021/05/16 03:36:15;;;;;;;3.43;2.10;;;;;;;10.69;73.90;97812.56;5088452;28;42039;-79
2021/05/16 03:38:42;;;;;;;2.80;2.50;;;;;;;10.66;73.63;97808.34;5089162;28;39708;-76
2021/05/16 03:41:09;;;;;;;2.67;2.00;;;;;;;10.72;73.26;97809.69;5083316;28;41873;-77
2021/05/16 03:43:36;;;;;;;4.83;2.40;;;;;;;10.60;73.50;97798.25;5143350;27;42454;-77
2021/05/16 03:46:03;;;;;;;4.93;2.40;;;;;;;10.76;73.55;97819.88;5109159;27;42055;-77
2021/05/16 03:48:31;;;;;;;2.63;2.43;;;;;;;10.79;73.07;97821.44;5108514;27;40383;-79
2021/05/16 03:50:58;;;;;;;4.03;2.30;;;;;;;10.82;73.09;97813.25;5104597;28;41524;-77
2021/05/16 03:53:26;;;;;;;4.53;2.60;;;;;;;10.92;72.79;97819.50;5088717;28;42750;-76
2021/05/16 03:55:53;;;;;;;5.83;2.20;;;;;;;10.98;72.47;97821.69;5078135;28;41432;-78
2021/05/16 03:58:20;;;;;;;2.27;1.97;;;;;;;10.99;72.60;97815.41;5090772;28;39907;-79
2021/05/16 04:00:47;;;;;;;3.63;2.20;;;;;;;11.07;72.39;97822.72;5108858;28;41575;-77
2021/05/16 04:03:14;;;;;;;2.73;2.27;;;;;;;11.04;72.13;97802.63;5107761;28;42644;-77
2021/05/16 04:05:42;;;;;;;4.97;2.23;;;;;;;11.05;72.34;97800.81;5092226;28;42900;-78
2021/05/16 04:08:09;;;;;;;3.90;2.40;;;;;;;11.17;72.06;97821.00;5087299;28;39802;-77
2021/05/16 04:10:37;;;;;;;4.00;2.17;;;;;;;11.21;71.89;97824.25;5089017;28;41455;-78
2021/05/16 04:13:04;;;;;;;3.87;1.87;;;;;;;11.27;71.79;97823.75;5087025;28;41960;-79
2021/05/16 04:15:32;;;;;;;3.33;1.70;;;;;;;11.34;71.63;97814.34;5070743;28;41290;-77
2021/05/16 04:17:59;;;;;;;2.83;1.63;;;;;;;11.30;71.30;97797.00;5086371;28;41702;-77
2021/05/16 04:20:27;;;;;;;2.20;1.93;;;;;;;11.47;71.32;97820.31;5101117;28;41306;-78
2021/05/16 04:22:55;;;;;;;2.73;1.93;;;;;;;11.51;70.99;97822.56;5105796;28;43159;-78
2021/05/16 04:25:22;;;;;;;1.70;1.50;;;;;;;11.56;70.79;97824.84;5108119;27;42193;-79
2021/05/16 04:27:50;;;;;;;1.47;1.37;;;;;;;11.59;70.69;97824.59;5093393;28;40586;-77
2021/05/16 04:30:17;;;;;;;5.03;1.43;;;;;;;11.65;70.89;97828.53;5090915;28;41711;-77
2021/05/16 04:32:45;;;;;;;3.23;1.50;;;;;;;11.70;70.75;97831.66;5091337;28;43437;-78
2021/05/16 04:35:13;;;;;;;3.23;1.50;;;;;;;11.64;70.64;97822.41;5096440;28;42292;-78
2021/05/16 04:37:40;;;;;;;2.27;1.40;;;;;;;11.69;70.55;97824.69;5130533;28;40748;-76
2021/05/16 04:40:08;;;;;;;3.10;1.37;;;;;;;11.77;70.53;97828.41;5129930;28;40930;-77
2021/05/16 04:42:35;;;;;;;2.73;1.03;;;;;;;11.84;70.36;97829.59;5120475;27;43270;-77
2021/05/16 04:45:04;;;;;;;2.70;1.40;;;;;;;11.95;70.42;97827.81;5144139;27;43141;-76
2021/05/16 04:47:31;;;;;;;2.97;1.67;;;;;;;12.05;70.14;97824.25;5108740;28;41405;-78
2021/05/16 04:49:59;;;;;;;2.30;1.10;;;;;;;11.79;69.56;97773.41;5136786;27;42308;-77
2021/05/16 04:52:26;;;;;;;3.73;1.47;;;;;;;12.22;69.41;97829.00;5113735;27;42719;-76
2021/05/16 04:54:53;;;;;;;2.10;1.40;;;;;;;12.29;69.49;97826.63;5112983;28;41240;-78
2021/05/16 04:57:20;;;;;;;1.73;1.27;;;;;;;12.39;69.20;97832.84;5108382;27;39848;-77
2021/05/16 04:59:49;;;;;;;1.50;1.23;;;;;;;12.49;68.85;97822.25;5126702;27;42363;-75
2021/05/16 05:02:19;;;;;;;3.00;1.10;;;;;;;12.62;68.23;97817.56;5124531;27;41971;-77
2021/05/16 05:04:46;;;;;;;4.70;1.20;;;;;;;12.70;68.00;97822.22;5090300;28;42506;-77
2021/05/16 05:07:15;;;;;;;1.87;1.00;;;;;;;12.81;68.15;97820.28;5104410;28;39770;-77
2021/05/16 05:09:42;;;;;;;3.13;1.10;;;;;;;12.93;67.87;97829.00;5112022;27;42634;-76
2021/05/16 05:12:09;;;;;;;1.37;0.83;;;;;;;12.93;67.54;97818.38;5109310;28;43499;-77
2021/05/16 05:14:37;;;;;;;3.27;1.20;;;;;;;12.90;67.30;97813.31;5073814;28;41236;-76
2021/05/16 05:17:04;;;;;;;1.53;0.90;;;;;;;12.89;67.14;97823.09;5123862;27;39619;-78
2021/05/16 05:19:32;;;;;;;1.83;1.10;;;;;;;12.93;67.09;97831.66;5091074;28;40699;-78
2021/05/16 05:21:59;;;;;;;3.73;1.00;;;;;;;12.88;66.83;97839.19;5096599;28;41653;-77
2021/05/16 05:24:27;;;;;;;1.83;0.80;;;;;;;12.80;66.89;97839.88;5110202;27;42655;-77
2021/05/16 05:26:54;;;;;;;2.03;1.00;;;;;;;12.80;67.17;97833.72;5107298;27;39811;-78
2021/05/16 05:29:21;;;;;;;2.87;0.90;;;;;;;12.84;66.73;97837.78;5110188;28;42240;-76
2021/05/16 05:31:48;;;;;;;2.37;0.93;;;;;;;12.81;66.65;97824.78;5110164;27;43241;-77
2021/05/16 05:34:15;;;;;;;3.77;1.07;;;;;;;12.96;66.74;97828.75;5109666;28;42293;-78
2021/05/16 05:36:47;;;;;;;4.20;1.00;;;;;;;12.97;66.10;97818.94;5109363;28;39433;-80
2021/05/16 05:39:14;;;;;;;2.60;1.00;;;;;;;13.20;66.08;97842.53;5091048;28;40653;-77
2021/05/16 05:41:44;;;;;;;2.50;1.17;;;;;;;13.32;65.63;97837.09;5107154;28;43412;-79
2021/05/16 05:44:11;;;;;;;2.73;1.03;;;;;;;13.30;65.44;97819.47;5116854;27;42131;-78
2021/05/16 05:46:39;;;;;;;1.30;0.70;;;;;;;13.47;65.25;97841.03;5110090;27;38777;-77
2021/05/16 05:49:08;;;;;;;2.10;0.80;;;;;;;13.42;65.61;97840.59;5134238;27;41312;-77
2021/05/16 05:51:35;;;;;;;3.17;1.20;;;;;;;13.18;66.31;97823.22;5091800;28;42743;-78
2021/05/16 05:54:03;;;;;;;1.83;0.90;;;;;;;13.14;66.63;97835.09;5107415;28;42111;-77
2021/05/16 05:56:31;;;;;;;2.13;1.10;;;;;;;13.16;66.81;97834.97;5108820;27;40749;-77
2021/05/16 05:58:58;;;;;;;2.97;1.23;;;;;;;13.29;66.60;97836.38;5108612;28;40559;-79
2021/05/16 06:01:25;;;;;;;2.63;1.00;;;;;;;13.51;66.59;97832.63;5105651;27;42608;-77
2021/05/16 06:03:52;;;;;;;5.10;3.60;;;;;;;13.81;65.56;97836.13;5073008;28;40691;-78
2021/05/16 06:06:19;;;;;;;3.77;2.33;;;;;;;14.05;65.30;97841.00;5092838;28;39004;-77
2021/05/16 06:08:46;;;;;;;3.20;1.00;;;;;;;14.24;65.16;97833.81;5110068;28;40969;-78
2021/05/16 06:11:16;;;;;;;4.70;1.00;;;;;;;14.10;64.50;97814.78;5108820;28;42801;-77
2021/05/16 06:13:44;;;;;;;2.70;1.00;;;;;;;14.09;64.44;97840.59;5108643;28;42842;-76
2021/05/16 06:16:20;;;;;;;1.87;1.00;;;;;;;14.05;65.46;97828.53;5109564;27;40748;-76
2021/05/16 06:18:48;;;;;;;2.23;0.80;;;;;;;14.04;65.44;97834.84;5109177;28;40534;-78
2021/05/16 06:21:15;;;;;;;1.40;0.70;;;;;;;14.09;65.38;97823.78;5107852;28;42809;-78
2021/05/16 06:23:48;;;;;;;1.40;0.70;;;;;;;14.22;64.93;97829.63;5091664;28;42964;-77
2021/05/16 06:26:16;;;;;;;2.30;0.83;;;;;;;14.35;64.59;97832.81;5092394;28;39795;-77
2021/05/16 06:28:44;;;;;;;2.57;0.90;;;;;;;14.55;64.40;97825.66;5089806;28;41606;-78
2021/05/16 06:31:11;;;;;;;3.03;0.90;;;;;;;14.78;63.92;97836.78;5133609;27;43402;-77
2021/05/16 06:33:39;;;;;;;1.57;0.90;;;;;;;14.97;63.86;97831.34;5108722;28;41212;-78
2021/05/16 06:36:06;;;;;;;1.77;0.63;;;;;;;14.95;64.18;97812.00;5108678;28;39524;-77
2021/05/16 06:38:33;;;;;;;1.20;0.70;;;;;;;15.18;62.99;97833.78;5108456;28;40808;-76
2021/05/16 06:41:01;;;;;;;2.27;0.80;;;;;;;15.40;63.14;97825.34;5106814;28;43527;-76
2021/05/16 06:43:29;;;;;;;2.27;0.90;;;;;;;15.80;62.24;97825.75;5108151;27;42942;-79
2021/05/16 06:45:56;;;;;;;3.53;0.80;;;;;;;16.12;61.25;97837.69;5104257;28;41957;-78
2021/05/16 06:48:23;;;;;;;1.03;0.80;;;;;;;16.46;60.70;97837.75;5107954;28;40445;-77
2021/05/16 06:50:54;;;;;;;2.40;0.80;;;;;;;16.39;60.26;97831.38;5105635;28;42721;-78
2021/05/16 06:53:22;;;;;;;2.30;0.93;;;;;;;16.23;60.92;97825.91;5107475;28;42751;-78
2021/05/16 06:55:49;;;;;;;2.20;0.90;;;;;;;15.84;62.20;97834.28;5108127;27;39546;-78
2021/05/16 06:58:16;;;;;;;2.10;0.93;;;;;;;15.43;63.26;97825.88;5090083;28;41226;-78
2021/05/16 07:00:45;;;;;;;0.97;0.63;;;;;;;15.23;64.67;97826.97;5107614;28;41968;-78
2021/05/16 07:03:12;;;;;;;1.80;0.87;;;;;;;15.10;65.13;97810.50;5107793;28;42357;-78
2021/05/16 07:05:40;;;;;;;1.20;0.70;;;;;;;15.07;65.58;97827.66;5091028;27;39717;-77
2021/05/16 07:08:07;;;;;;;1.87;0.90;;;;;;;14.88;64.99;97829.56;5087678;28;41498;-77
2021/05/16 07:10:38;;;;;;;1.20;0.80;;;;;;;14.67;65.86;97817.31;5103233;28;42578;-77
2021/05/16 07:13:05;;;;;;;2.47;0.90;;;;;;;14.47;66.37;97821.03;5106918;28;42011;-75
2021/05/16 07:15:33;;;;;;;1.90;0.80;;;;;;;14.32;67.71;97814.47;5142561;27;39729;-77
2021/05/16 07:18:01;;;;;;;2.27;1.00;;;;;;;14.36;68.10;97826.50;5107970;28;42281;-77
2021/05/16 07:20:28;;;;;;;2.27;1.03;;;;;;;14.23;68.01;97826.81;5106243;28;41683;-74
2021/05/16 07:22:56;;;;;;;2.53;1.03;;;;;;;14.20;69.02;97827.13;5105872;28;41346;-76
2021/05/16 07:25:22;;;;;;;1.70;0.97;;;;;;;14.11;69.36;97819.13;5107008;28;40461;-75
2021/05/16 07:27:50;;;;;;;4.37;0.97;;;;;;;14.00;69.92;97825.47;5091015;28;40778;-76
2021/05/16 07:30:17;;;;;;;2.07;0.80;;;;;;;13.87;69.84;97830.22;5109142;28;42752;-75
2021/05/16 07:32:44;;;;;;;2.03;0.90;;;;;;;13.75;70.07;97824.22;5091833;28;42119;-77
2021/05/16 07:35:13;;;;;;;1.77;0.90;;;;;;;13.68;70.67;97828.44;5108633;28;40775;-77
2021/05/16 07:37:42;;;;;;;3.10;1.07;;;;;;;13.70;70.61;97829.16;5109374;27;41760;-77
2021/05/16 07:40:11;;;;;;;2.00;1.10;;;;;;;13.72;70.45;97832.50;5107247;28;42453;-75
2021/05/16 07:42:40;;;;;;;2.63;1.07;;;;;;;13.62;71.26;97821.00;5108211;28;41285;-75
2021/05/16 07:45:08;;;;;;;2.90;1.10;;;;;;;13.55;71.59;97830.53;5089175;28;39385;-77
2021/05/16 07:47:35;;;;;;;4.13;1.30;;;;;;;13.42;72.36;97816.66;5090505;28;41334;-75
2021/05/16 07:50:04;;;;;;;2.97;0.90;;;;;;;13.28;72.50;97805.44;5107402;27;42307;-76
2021/05/16 07:52:32;;;;;;;2.67;1.00;;;;;;;13.49;72.55;97833.72;5106543;28;41691;-75
2021/05/16 07:54:59;;;;;;;1.63;0.80;;;;;;;13.56;72.73;97827.75;5094872;28;39174;-75
2021/05/16 07:57:26;;;;;;;2.20;1.10;;;;;;;13.66;72.63;97830.41;5070179;28;40630;-75
2021/05/16 07:59:53;;;;;;;1.63;0.90;;;;;;;13.77;72.15;97835.56;5093506;28;41519;-75
2021/05/16 08:02:20;;;;;;;3.00;0.63;;;;;;;13.91;72.02;97827.16;5113472;28;42711;-75
2021/05/16 08:04:48;;;;;;;1.30;0.87;;;;;;;14.01;71.63;97849.28;5115933;27;39860;-76
2021/05/16 08:07:15;;;;;;;1.53;0.90;;;;;;;14.02;72.20;97840.31;5112973;28;41987;-75
2021/05/16 08:09:44;;;;;;;2.87;1.10;;;;;;;13.96;72.30;97840.91;5113447;28;42656;-76
2021/05/16 08:12:12;;;;;;;2.00;1.03;;;;;;;13.95;72.27;97841.88;5114352;28;43006;-76
2021/05/16 08:14:39;;;;;;;1.97;1.00;;;;;;;13.92;72.31;97839.50;5117860;27;39214;-76
2021/05/16 08:17:06;;;;;;;1.73;0.87;;;;;;;14.15;72.48;97840.00;5093650;28;42799;-75
2021/05/16 08:19:33;;;;;;;1.43;0.80;;;;;;;14.26;71.73;97831.03;5096819;28;42207;-75
2021/05/16 08:22:00;;;;;;;1.33;0.70;;;;;;;14.43;71.90;97827.66;5114823;27;42130;-76
2021/05/16 08:24:28;;;;;;;2.63;0.70;;;;;;;14.59;71.08;97805.69;5113354;28;40654;-75
2021/05/16 08:26:56;;;;;;;1.50;0.80;;;;;;;15.03;70.20;97822.75;5113630;28;42466;-76
2021/05/16 08:29:23;;;;;;;0.87;0.60;;;;;;;15.52;68.59;97828.63;5115732;27;42635;-76
2021/05/16 08:31:50;;;;;;;1.43;0.60;;;;;;;15.99;68.22;97821.22;5097491;28;41786;-76
2021/05/16 08:34:18;;;;;;;1.03;0.70;;;;;;;16.44;66.78;97818.38;5097288;28;39810;-76
2021/05/16 08:36:45;;;;;;;0.80;0.60;;;;;;;16.90;65.85;97822.50;5114937;28;41624;-77
2021/05/16 08:39:12;;;;;;;2.13;0.80;;;;;;;17.24;64.01;97823.28;5113392;28;43253;-76
2021/05/16 08:41:39;;;;;;;1.20;0.97;;;;;;;17.35;62.64;97808.75;5114418;28;42291;-76
2021/05/16 08:44:07;;;;;;;0.90;0.53;;;;;;;18.14;60.96;97836.81;5114183;28;39316;-76
2021/05/16 08:46:34;;;;;;;0.70;0.70;;;;;;;18.83;59.09;97800.50;5114260;28;42101;-77
2021/05/16 08:49:02;;;;;;;0.70;0.60;;;;;;;20.05;55.83;97849.81;5113962;28;43422;-76
2021/05/16 08:51:29;;;;;;;1.20;0.70;;;;;;;20.68;54.70;97847.75;5114980;27;42942;-76
2021/05/16 08:53:56;;;;;;;1.13;0.60;;;;;;;22.13;52.99;97863.91;5113864;28;40246;-77
2021/05/16 08:56:23;;;;;;;0.67;0.43;;;;;;;22.37;49.91;97873.50;5096858;28;41636;-77
2021/05/16 08:58:51;;;;;;;1.70;1.10;;;;;;;22.13;50.50;97861.22;5114275;27;42670;-77
2021/05/16 09:01:22;;;;;;;1.20;0.60;;;;;;;21.67;51.08;97860.72;5115175;27;42970;-78
2021/05/16 09:03:52;;;;;;;1.00;0.50;;;;;;;20.89;49.96;97863.22;5114631;27;40346;-77
2021/05/16 09:06:32;;;;;;;1.80;0.80;;;;;;;20.23;51.74;97857.59;5096664;28;42317;-77
2021/05/16 09:09:24;;;;;;;1.60;0.70;;;;;;;19.55;52.27;97855.69;5111122;28;42404;-78
2021/05/16 09:11:56;;;;;;;3.30;1.03;;;;;;;18.88;53.27;97852.63;5110395;28;43085;-76
2021/05/16 09:14:40;;;;;;;1.83;0.90;;;;;;;18.31;55.03;97835.78;5109089;27;40631;-75
2021/05/16 09:17:24;;;;;;;1.43;0.80;;;;;;;17.98;55.08;97848.34;5110904;27;41775;-76
2021/05/16 09:19:54;;;;;;;2.20;0.60;;;;;;;18.40;57.22;97832.09;5111167;27;43432;-76
2021/05/16 09:22:46;;;;;;;2.10;0.90;;;;;;;19.15;55.96;97839.78;5093057;28;42680;-75
2021/05/16 09:25:17;;;;;;;0.97;0.70;;;;;;;19.61;54.33;97849.63;5095040;27;39747;-76
2021/05/16 09:27:46;;;;;;;2.77;1.00;;;;;;;20.01;53.86;97850.38;5092873;28;41684;-76
2021/05/16 09:30:28;;;;;;;2.47;0.80;;;;;;;20.41;52.84;97850.03;5092504;28;44183;-77
2021/05/16 09:32:58;;;;;;;1.13;0.80;;;;;;;20.87;51.15;97852.63;5110784;27;42178;-76
2021/05/16 09:35:32;;;;;;;3.17;0.83;;;;;;;21.17;49.91;97854.25;5093059;28;38466;-77
2021/05/16 09:38:01;;;;;;;0.93;0.63;;;;;;;21.69;49.47;97858.66;5110578;27;41398;-77
2021/05/16 09:40:31;;;;;;;2.53;0.90;;;;;;;23.19;45.59;97843.97;5110106;28;42332;-77
2021/05/16 09:43:20;;;;;;;2.13;0.97;;;;;;;23.96;45.65;97853.63;5092291;28;41586;-76
2021/05/16 09:45:53;;;;;;;1.23;0.87;;;;;;;24.65;42.55;97864.91;5111942;27;39946;-77
2021/05/16 09:48:28;;;;;;;1.67;0.70;;;;;;;24.86;42.65;97860.31;5091244;28;40726;-76
2021/05/16 09:51:15;;;;;;;2.27;0.90;;;;;;;24.03;43.00;97861.72;5107536;28;42469;-77
2021/05/16 09:53:51;;;;;;;1.53;1.00;;;;;;;23.18;43.03;97861.19;5091745;28;41222;-78
2021/05/16 09:56:21;;;;;;;2.87;0.90;;;;;;;23.46;41.87;97865.69;5091703;28;38996;-77
2021/05/16 09:58:48;;;;;;;3.40;1.20;;;;;;;23.68;40.59;97867.25;5108430;28;41280;-78
2021/05/16 10:01:16;;;;;;;2.67;1.10;;;;;;;23.81;40.35;97871.88;5091308;28;41772;-79
2021/05/16 10:03:46;;;;;;;2.30;1.00;;;;;;;23.35;41.74;97864.41;5107674;28;42179;-78
2021/05/16 10:06:13;;;;;;;4.47;1.63;;;;;;;22.62;42.72;97843.38;5089249;28;41649;-78
2021/05/16 10:08:44;;;;;;;2.50;1.10;;;;;;;22.05;44.20;97825.47;5108456;28;40859;-81
2021/05/16 10:11:13;;;;;;;2.87;1.10;;;;;;;21.69;42.56;97841.66;5105183;28;43537;-77
2021/05/16 10:13:52;;;;;;;2.23;1.10;;;;;;;21.64;43.28;97838.69;5087895;28;41540;-77
2021/05/16 10:16:21;;;;;;;1.87;0.80;;;;;;;24.45;40.91;97847.88;5103503;28;39885;-78
2021/05/16 10:18:50;;;;;;;4.53;1.17;;;;;;;27.03;36.14;97869.19;5101744;28;42330;-77
2021/05/16 10:21:22;;;;;;;3.07;1.40;;;;;;;28.73;32.19;97887.03;5085934;28;42161;-77
2021/05/16 10:24:07;;;;;;;2.40;1.20;;;;;;;27.59;31.86;97887.19;5101074;27;42207;-77
2021/05/16 10:26:34;;;;;;;1.67;1.00;;;;;;;28.13;32.97;97880.84;5105983;28;40094;-78
2021/05/16 10:29:06;;;;;;;2.37;1.20;;;;;;;27.41;33.65;97872.53;5105296;28;41839;-77
2021/05/16 10:31:47;;;;;;;3.53;1.40;;;;;;;25.96;35.17;97865.63;5089424;28;42644;-78
2021/05/16 10:34:41;;;;;;;3.80;1.10;;;;;;;24.67;37.46;97846.59;5104001;28;42529;-78
2021/05/16 10:37:12;;;;;;;2.73;1.00;;;;;;;25.04;38.57;97836.97;5088013;28;39888;-77
2021/05/16 10:39:53;;;;;;;3.87;1.57;;;;;;;25.85;38.97;97832.91;5105122;28;42171;-78
2021/05/16 10:42:22;;;;;;;3.07;1.33;;;;;;;26.75;38.05;97827.00;5101065;28;43492;-78
2021/05/16 10:44:58;;;;;;;4.23;1.20;;;;;;;27.39;38.54;97824.88;5105010;28;43000;-78
2021/05/16 10:47:52;;;;;;;3.67;1.00;;;;;;;27.11;37.21;97828.94;5103654;28;39711;-78
2021/05/16 10:50:50;;;;;;;4.83;1.00;;;;;;;26.32;37.69;97837.84;5100545;28;40712;-77
2021/05/16 10:53:28;;;;;;;2.53;1.00;;;;;;;25.88;37.55;97819.72;5102043;28;42717;-77
2021/05/16 10:56:19;;;;;;;3.10;1.23;;;;;;;25.08;38.30;97804.88;5101075;28;41434;-77
2021/05/16 10:58:49;;;;;;;2.40;0.97;;;;;;;24.40;39.63;97801.63;5101686;28;40645;-77
2021/05/16 11:01:18;;;;;;;2.73;1.20;;;;;;;23.57;40.12;97792.16;5106192;27;47948;-77
2021/05/16 11:03:55;;;;;;;2.73;1.20;;;;;;;22.84;42.38;97772.94;5104102;28;42233;-77
2021/05/16 11:06:25;;;;;;;5.63;1.57;;;;;;;23.21;45.42;97752.75;5106128;28;41361;-78
2021/05/16 11:09:01;;;;;;;5.20;1.30;;;;;;;24.20;43.05;97760.22;5101340;28;40050;-78
2021/05/16 11:11:31;;;;;;;4.33;1.30;;;;;;;24.30;40.85;97768.75;5104419;28;42332;-79
2021/05/16 11:13:58;;;;;;;3.27;1.20;;;;;;;23.90;41.30;97766.00;5104446;28;42520;-79
2021/05/16 11:16:26;;;;;;;2.87;1.10;;;;;;;23.37;41.22;97754.22;5106871;27;41834;-79
2021/05/16 11:18:53;;;;;;;3.23;1.20;;;;;;;23.21;41.97;97763.56;5103267;28;40561;-79
2021/05/16 11:21:21;;;;;;;1.80;1.10;;;;;;;23.41;41.86;97741.16;5106700;27;41729;-79
2021/05/16 11:23:49;;;;;;;2.63;0.93;;;;;;;23.41;41.61;97752.81;5100012;28;43260;-79
2021/05/16 11:26:22;;;;;;;4.63;1.43;;;;;;;23.14;39.99;97740.25;5105681;27;42479;-79
2021/05/16 11:28:57;;;;;;;4.80;1.30;;;;;;;22.93;40.94;97757.41;5104989;28;40014;-79
2021/05/16 11:31:27;;;;;;;1.90;1.17;;;;;;;22.64;41.33;97754.94;5136681;27;41581;-79
2021/05/16 11:33:56;;;;;;;3.33;1.43;;;;;;;22.47;42.89;97749.88;5103082;28;43445;-79
2021/05/16 11:36:25;;;;;;;3.70;1.20;;;;;;;22.01;42.65;97706.38;5106023;27;43012;-79
2021/05/16 11:38:54;;;;;;;2.20;1.10;;;;;;;22.02;42.19;97755.75;5105066;28;39423;-77
2021/05/16 11:41:34;;;;;;;3.33;1.17;;;;;;;21.68;43.46;97757.28;5101717;28;41437;-78
2021/05/16 11:44:03;;;;;;;2.60;1.00;;;;;;;21.82;45.46;97728.59;5103086;28;42806;-77